Sanibel, Florida
Current Conditions -  °F | °C
As of 5:53 PM on Wednesday 22 Oct 2014 (Local Time) from KFMY Reporting Station
Broken Clouds Broken Clouds  
Wind Chill: 80°   Ceiling: 6000
Heat Index: 84°   Visibility: 10mi
Dew Point: 72°   Wind: 0mph
Humidity: 76%   Direction: NA
Pressure: 29.9"   Gusts: NA
Location:  26.44°N, 82.07°W
Report Text: KFMY 222153Z 00000KT 10SM SCT039 BKN060 BKN100 27/22 A2990 RMK AO2 RAB15E32 SLP127 P0000 T02670222
Loading
Personal Weather Stations






























Interactive Weather Map
Tropical Storm Tracking
New forecast layout! Learn more

10-Day Weather Forecast

Advertisements
Track Severe Weather on mobile